CYXR

Earlton (Timiskaming Regional) Airport

Earlton, Ontario, Canada
METAR CYXR 161000Z AUTO 30014KT 9SM CLR M21/M24 A2982 RMK ICG SLP123
Observed Flight Rules
Dec-16 @ 10:00 UTC (an hour ago) Visual Flight Rules
Wind Visibility Clouds
300° at 14 knots 9 miles
  • Clear skies
Temperatures Readings
Current -21°C / -6°F
Dewpoint -24°C / -11°F
Humidity 77%
Altimeter 29.82" Hg
Pressure 1012.3 hPa
Elevation 243
METAR CYXR 161000Z AUTO 30014KT 9SM CLR M21/M24 A2982 RMK ICG SLP123
Observed Flight Rules
Dec-16 @ 10:00 UTC
(an hour ago)
VFR
Wind Visibility
300° at 14 knots 9 miles
Clouds
  • Clear skies
Temperature Dewpoint
-21°C / -6°F -24°C / -11°F
Humidity Altimeter Pressure
77% 29.82" Hg 1012.3 hPa